Time;durP1;ratioP1;P1;durP2;ratioP2;P2;SDS_P1;SDS_P2;PMS_P1;PMS_P2;Temp;Humidity;BMP_temperature;BMP_pressure;BME280_temperature;BME280_humidity;BME280_pressure;Samples;Min_cycle;Max_cycle;Signal;HPM_P1;HPM_P2
2022/06/08 00:00:09;;;;;;;;;;;15.50;99.90;;;;;;5080887;28;19939;-67
2022/06/08 00:02:36;;;;;;;;;;;15.50;99.90;;;;;;5079877;28;19924;-66
2022/06/08 00:05:03;;;;;;;;;;;15.60;99.90;;;;;;5079403;28;20010;-66
2022/06/08 00:07:30;;;;;;;;;;;15.60;99.90;;;;;;5081470;28;19924;-67
2022/06/08 00:09:58;;;;;;;;;;;15.60;99.90;;;;;;5077847;28;19978;-67
2022/06/08 00:12:27;;;;;;;;;;;15.60;99.90;;;;;;5080228;28;19924;-66
2022/06/08 00:14:54;;;;;;;;;;;15.60;99.90;;;;;;5080445;28;20413;-67
2022/06/08 00:17:21;;;;;;;;;;;15.60;99.90;;;;;;5084080;28;19935;-67
2022/06/08 00:19:48;;;;;;;;;;;15.70;99.90;;;;;;5082466;28;20044;-67
2022/06/08 00:22:15;;;;;;;;;;;15.70;99.90;;;;;;5077548;28;19985;-66
2022/06/08 00:24:42;;;;;;;;;;;15.70;99.90;;;;;;5080013;28;20333;-66
2022/06/08 00:27:09;;;;;;;;;;;15.70;99.90;;;;;;5079878;28;19924;-66
2022/06/08 00:29:37;;;;;;;;;;;15.70;99.90;;;;;;5079243;28;19924;-66
2022/06/08 00:32:04;;;;;;;;;;;15.70;99.90;;;;;;5082360;28;20552;-66
2022/06/08 00:34:31;;;;;;;;;;;15.70;99.90;;;;;;5081322;28;19924;-67
2022/06/08 00:36:57;;;;;;;;;;;15.70;99.90;;;;;;5079319;28;19936;-67
2022/06/08 00:39:24;;;;;;;;;;;15.70;99.90;;;;;;5080501;28;19925;-67
2022/06/08 00:41:53;;;;;;;;;;;15.70;99.90;;;;;;5080633;28;20009;-67
2022/06/08 00:44:23;;;;;;;;;;;15.70;99.90;;;;;;5078195;28;19975;-67
2022/06/08 00:46:52;;;;;;;;;;;15.70;99.90;;;;;;5081597;28;19927;-68
2022/06/08 00:49:22;;;;;;;;;;;15.60;99.90;;;;;;5078717;28;20280;-65
2022/06/08 00:51:49;;;;;;;;;;;15.60;99.90;;;;;;5078587;28;19977;-65
2022/06/08 00:54:18;;;;;;;;;;;15.60;99.90;;;;;;5080669;28;20082;-65
2022/06/08 00:56:48;;;;;;;;;;;15.50;99.90;;;;;;5077463;28;20461;-65
2022/06/08 00:59:15;;;;;;;;;;;15.50;99.90;;;;;;5078269;28;20015;-66
2022/06/08 01:01:41;;;;;;;;;;;15.50;99.90;;;;;;5082850;28;20031;-66
2022/06/08 01:04:11;;;;;;;;;;;15.40;99.90;;;;;;5079129;28;20082;-66
2022/06/08 01:06:38;;;;;;;;;;;15.30;99.90;;;;;;5084381;28;20025;-66
2022/06/08 01:09:05;;;;;;;;;;;15.20;99.90;;;;;;5077696;28;20054;-67
2022/06/08 01:11:35;;;;;;;;;;;15.20;99.90;;;;;;5081682;28;20031;-67
2022/06/08 01:14:04;;;;;;;;;;;15.10;99.90;;;;;;5080355;28;19985;-66
2022/06/08 01:16:32;;;;;;;;;;;15.10;99.90;;;;;;5083478;28;19931;-66
2022/06/08 01:19:01;;;;;;;;;;;15.00;99.90;;;;;;5077869;28;19932;-66
2022/06/08 01:21:48;;;;;;;;;;;15.00;99.90;;;;;;5084172;28;19985;-67
2022/06/08 01:24:15;;;;;;;;;;;15.00;99.90;;;;;;5083371;28;20175;-67
2022/06/08 01:26:45;;;;;;;;;;;14.90;99.90;;;;;;5087620;28;20028;-65
2022/06/08 01:29:15;;;;;;;;;;;14.90;99.90;;;;;;5077599;28;19964;-65
2022/06/08 01:31:46;;;;;;;;;;;14.80;99.90;;;;;;5080912;28;19924;-66
2022/06/08 01:34:17;;;;;;;;;;;14.80;99.90;;;;;;5075022;28;19990;-66
2022/06/08 01:36:53;;;;;;;;;;;14.80;99.90;;;;;;5092307;28;19924;-66
2022/06/08 01:39:25;;;;;;;;;;;14.80;99.90;;;;;;5081746;28;19930;-66
2022/06/08 01:42:12;;;;;;;;;;;14.70;99.90;;;;;;5089920;28;20011;-66
2022/06/08 01:47:34;;;;;;;;;;;14.70;99.90;;;;;;5081608;28;19938;-67
2022/06/08 01:50:03;;;;;;;;;;;14.70;99.90;;;;;;5079409;28;20364;-67
2022/06/08 01:52:37;;;;;;;;;;;14.60;99.90;;;;;;5079825;28;19956;-67
2022/06/08 01:55:10;;;;;;;;;;;14.70;99.90;;;;;;5079497;28;20042;-65
2022/06/08 01:57:50;;;;;;;;;;;14.70;99.90;;;;;;5088688;28;19943;-67
2022/06/08 02:00:18;;;;;;;;;;;14.70;99.90;;;;;;5079866;28;19938;-67
2022/06/08 02:02:51;;;;;;;;;;;14.70;99.90;;;;;;5080888;28;20019;-67
2022/06/08 02:05:22;;;;;;;;;;;14.70;99.90;;;;;;5084264;28;19924;-67
2022/06/08 02:07:55;;;;;;;;;;;14.70;99.90;;;;;;5079286;28;19947;-67
2022/06/08 02:10:24;;;;;;;;;;;14.70;99.90;;;;;;5083430;28;19924;-67
2022/06/08 02:12:52;;;;;;;;;;;14.60;99.90;;;;;;5081624;28;20040;-68
2022/06/08 02:15:23;;;;;;;;;;;14.60;99.90;;;;;;5080137;28;20472;-67
2022/06/08 02:17:52;;;;;;;;;;;14.60;99.90;;;;;;5081231;28;20063;-65
2022/06/08 02:20:21;;;;;;;;;;;14.60;99.90;;;;;;5081369;28;20018;-66
2022/06/08 02:22:50;;;;;;;;;;;14.60;99.90;;;;;;5081591;28;19928;-67
2022/06/08 02:25:19;;;;;;;;;;;14.60;99.90;;;;;;5081976;28;20130;-66
2022/06/08 02:27:50;;;;;;;;;;;14.50;99.90;;;;;;5083093;28;20122;-66
2022/06/08 02:30:19;;;;;;;;;;;14.50;99.90;;;;;;5078285;28;19943;-66
2022/06/08 02:35:35;;;;;;;;;;;14.40;99.90;;;;;;5080534;28;20393;-65
2022/06/08 02:38:05;;;;;;;;;;;14.40;99.90;;;;;;5082524;28;19969;-66
2022/06/08 02:40:35;;;;;;;;;;;14.40;99.90;;;;;;5077443;28;19939;-67
2022/06/08 02:43:05;;;;;;;;;;;14.30;99.90;;;;;;5081736;28;20020;-66
2022/06/08 02:45:37;;;;;;;;;;;14.30;99.90;;;;;;5081677;28;19928;-66
2022/06/08 02:48:05;;;;;;;;;;;14.20;99.90;;;;;;5077402;28;19940;-66
2022/06/08 02:50:32;;;;;;;;;;;14.20;99.90;;;;;;5079471;28;19924;-67
2022/06/08 02:53:13;;;;;;;;;;;14.20;99.90;;;;;;5077138;28;19924;-66
2022/06/08 02:55:46;;;;;;;;;;;14.20;99.90;;;;;;5077730;28;20037;-67
2022/06/08 02:58:16;;;;;;;;;;;14.20;99.90;;;;;;5079865;28;20015;-67
2022/06/08 03:00:45;;;;;;;;;;;14.10;99.90;;;;;;5079851;28;20094;-67
2022/06/08 03:03:15;;;;;;;;;;;14.10;99.90;;;;;;5084022;28;20007;-66
2022/06/08 03:05:45;;;;;;;;;;;14.10;99.90;;;;;;5077780;28;19932;-68
2022/06/08 03:08:14;;;;;;;;;;;14.10;99.90;;;;;;5083622;28;20003;-66
2022/06/08 03:10:44;;;;;;;;;;;14.20;99.90;;;;;;5077175;28;19963;-66
2022/06/08 03:13:15;;;;;;;;;;;14.20;99.90;;;;;;5082339;28;20026;-67
2022/06/08 03:15:43;;;;;;;;;;;14.20;99.90;;;;;;5079368;28;19924;-67
2022/06/08 03:18:10;;;;;;;;;;;14.20;99.90;;;;;;5079575;28;20007;-67
2022/06/08 03:20:36;;;;;;;;;;;14.20;99.90;;;;;;5078148;28;19932;-67
2022/06/08 03:23:03;;;;;;;;;;;14.20;99.90;;;;;;5081119;28;19956;-67
2022/06/08 03:25:30;;;;;;;;;;;14.20;99.90;;;;;;5079159;28;19939;-66
2022/06/08 03:27:58;;;;;;;;;;;14.30;99.90;;;;;;5082507;28;19931;-67
2022/06/08 03:30:25;;;;;;;;;;;14.40;99.90;;;;;;5076327;28;20007;-67
2022/06/08 03:32:51;;;;;;;;;;;14.40;99.90;;;;;;5085306;28;19982;-66
2022/06/08 03:35:18;;;;;;;;;;;14.50;99.90;;;;;;5074122;28;19963;-66
2022/06/08 03:37:45;;;;;;;;;;;14.50;99.90;;;;;;5081486;28;19932;-67
2022/06/08 03:40:12;;;;;;;;;;;14.50;99.90;;;;;;5082291;28;20465;-67
2022/06/08 03:42:39;;;;;;;;;;;14.60;99.90;;;;;;5084263;28;20001;-67
2022/06/08 03:45:08;;;;;;;;;;;14.70;99.90;;;;;;5078959;28;20659;-67
2022/06/08 03:47:37;;;;;;;;;;;14.70;99.90;;;;;;5081071;28;19971;-66
2022/06/08 03:50:07;;;;;;;;;;;14.80;99.90;;;;;;5078243;28;20011;-66
2022/06/08 03:52:36;;;;;;;;;;;14.90;99.90;;;;;;5081741;28;19989;-67
2022/06/08 03:55:05;;;;;;;;;;;14.90;99.90;;;;;;5079662;28;19932;-67
2022/06/08 03:57:34;;;;;;;;;;;14.90;99.90;;;;;;5076468;28;20019;-67
2022/06/08 04:00:01;;;;;;;;;;;15.00;99.90;;;;;;5075993;28;19929;-67
2022/06/08 04:02:30;;;;;;;;;;;15.00;99.90;;;;;;5081192;28;19931;-66
2022/06/08 04:04:56;;;;;;;;;;;15.00;99.90;;;;;;5082897;28;19924;-66
2022/06/08 04:07:23;;;;;;;;;;;15.10;99.90;;;;;;5076822;28;20026;-67
2022/06/08 04:09:50;;;;;;;;;;;15.20;99.90;;;;;;5077630;28;20031;-67
2022/06/08 04:12:22;;;;;;;;;;;15.10;99.90;;;;;;5078337;28;20341;-66
2022/06/08 04:14:49;;;;;;;;;;;15.20;99.90;;;;;;5082152;28;19928;-67
2022/06/08 04:17:16;;;;;;;;;;;15.20;99.90;;;;;;5082642;28;20550;-66
2022/06/08 04:19:47;;;;;;;;;;;15.20;99.90;;;;;;5081041;28;19936;-66
2022/06/08 04:22:14;;;;;;;;;;;15.30;99.90;;;;;;5081395;28;19928;-67
2022/06/08 04:24:41;;;;;;;;;;;15.30;99.90;;;;;;5083581;28;19979;-66
2022/06/08 04:27:08;;;;;;;;;;;15.30;99.90;;;;;;5078555;28;19999;-67
2022/06/08 04:29:35;;;;;;;;;;;15.40;99.90;;;;;;5076854;28;19938;-67
2022/06/08 04:32:02;;;;;;;;;;;15.40;99.90;;;;;;5080677;28;20370;-67
2022/06/08 04:34:28;;;;;;;;;;;15.40;99.90;;;;;;5081538;28;19959;-67
2022/06/08 04:36:56;;;;;;;;;;;15.50;99.90;;;;;;5075852;28;20011;-67
2022/06/08 04:39:23;;;;;;;;;;;15.50;99.90;;;;;;5075319;28;20422;-67
2022/06/08 04:41:50;;;;;;;;;;;15.50;99.90;;;;;;5080730;28;20003;-67
2022/06/08 04:44:17;;;;;;;;;;;15.50;99.90;;;;;;5078842;28;19936;-66
2022/06/08 04:46:44;;;;;;;;;;;15.50;99.90;;;;;;5084606;28;20339;-67
2022/06/08 04:49:11;;;;;;;;;;;15.60;99.90;;;;;;5081552;28;20007;-67
2022/06/08 04:51:37;;;;;;;;;;;15.60;99.90;;;;;;5084761;28;19995;-66
2022/06/08 04:54:06;;;;;;;;;;;15.60;99.90;;;;;;5081983;28;19928;-67
2022/06/08 04:56:32;;;;;;;;;;;15.60;99.90;;;;;;5082695;28;20042;-66
2022/06/08 04:59:01;;;;;;;;;;;15.70;99.90;;;;;;5084297;28;20354;-67
2022/06/08 05:01:28;;;;;;;;;;;15.70;99.90;;;;;;5087031;28;20375;-66
2022/06/08 05:03:54;;;;;;;;;;;15.70;99.90;;;;;;5079816;28;20022;-67
2022/06/08 05:06:21;;;;;;;;;;;15.70;99.90;;;;;;5082437;28;19928;-66
2022/06/08 05:08:48;;;;;;;;;;;15.70;99.90;;;;;;5082293;28;20008;-67
2022/06/08 05:11:16;;;;;;;;;;;15.80;99.90;;;;;;5084168;28;20359;-67
2022/06/08 05:13:42;;;;;;;;;;;15.70;99.90;;;;;;5081960;28;19924;-66
2022/06/08 05:16:09;;;;;;;;;;;15.80;99.90;;;;;;5077539;28;20383;-66
2022/06/08 05:18:36;;;;;;;;;;;15.80;99.90;;;;;;5085186;28;20168;-66
2022/06/08 05:21:03;;;;;;;;;;;15.80;99.90;;;;;;5080308;28;20354;-66
2022/06/08 05:23:31;;;;;;;;;;;15.80;99.90;;;;;;5079312;28;19978;-67
2022/06/08 05:25:59;;;;;;;;;;;15.80;99.90;;;;;;5079093;28;20007;-66
2022/06/08 05:28:27;;;;;;;;;;;15.90;99.90;;;;;;5076539;28;20343;-66
2022/06/08 05:30:56;;;;;;;;;;;15.90;99.90;;;;;;5074741;28;19978;-66
2022/06/08 05:33:23;;;;;;;;;;;15.90;99.90;;;;;;5075914;28;19939;-66
2022/06/08 05:35:50;;;;;;;;;;;15.90;99.90;;;;;;5066973;28;20015;-65
2022/06/08 05:38:16;;;;;;;;;;;16.00;99.90;;;;;;5064388;28;20209;-66
2022/06/08 05:40:43;;;;;;;;;;;16.10;99.90;;;;;;5063779;28;20031;-66
2022/06/08 05:43:11;;;;;;;;;;;16.10;99.90;;;;;;5063559;28;19974;-66
2022/06/08 05:45:40;;;;;;;;;;;16.10;99.90;;;;;;5066615;28;19928;-66
2022/06/08 05:48:07;;;;;;;;;;;16.10;99.90;;;;;;5065408;28;19928;-65
2022/06/08 05:50:35;;;;;;;;;;;16.10;99.90;;;;;;5065062;28;19989;-66
2022/06/08 05:53:02;;;;;;;;;;;16.10;99.90;;;;;;5066869;28;20025;-66
2022/06/08 05:55:29;;;;;;;;;;;16.30;99.90;;;;;;5064994;28;19947;-66
2022/06/08 05:57:56;;;;;;;;;;;16.40;99.90;;;;;;5064714;28;20583;-66
2022/06/08 06:00:24;;;;;;;;;;;16.40;99.90;;;;;;5060991;28;20398;-66
2022/06/08 06:02:52;;;;;;;;;;;16.50;99.90;;;;;;5062368;28;19942;-65
2022/06/08 06:05:20;;;;;;;;;;;16.50;99.90;;;;;;5066423;28;20675;-65
2022/06/08 06:07:47;;;;;;;;;;;16.60;99.90;;;;;;5063139;28;19933;-64
2022/06/08 06:10:14;;;;;;;;;;;16.60;99.90;;;;;;5080671;28;20322;-65
2022/06/08 06:12:41;;;;;;;;;;;16.60;99.90;;;;;;5082658;28;19932;-64
2022/06/08 06:15:09;;;;;;;;;;;16.60;99.90;;;;;;5074170;28;19924;-64
2022/06/08 06:17:35;;;;;;;;;;;16.60;99.90;;;;;;5078733;28;20027;-64
2022/06/08 06:20:04;;;;;;;;;;;16.60;99.90;;;;;;5082501;28;20275;-65
2022/06/08 06:22:33;;;;;;;;;;;16.60;99.90;;;;;;5083897;28;19966;-64
2022/06/08 06:25:00;;;;;;;;;;;16.70;99.90;;;;;;5085102;28;19924;-64
2022/06/08 06:27:26;;;;;;;;;;;16.70;99.90;;;;;;5079096;28;19928;-65
2022/06/08 06:29:53;;;;;;;;;;;16.60;99.90;;;;;;5081494;28;20023;-65
2022/06/08 06:32:22;;;;;;;;;;;16.60;99.90;;;;;;5079822;28;19924;-65
2022/06/08 06:34:49;;;;;;;;;;;16.50;99.90;;;;;;5076391;28;20014;-65
2022/06/08 06:37:17;;;;;;;;;;;16.50;99.90;;;;;;5079217;28;20016;-66
2022/06/08 06:39:44;;;;;;;;;;;16.40;99.90;;;;;;5089105;28;19959;-65
2022/06/08 06:42:14;;;;;;;;;;;16.40;99.90;;;;;;5072453;28;19927;-65
2022/06/08 06:44:40;;;;;;;;;;;16.40;99.90;;;;;;5081173;28;20438;-66
2022/06/08 06:47:07;;;;;;;;;;;16.40;99.90;;;;;;5078716;28;20027;-66
2022/06/08 06:49:34;;;;;;;;;;;16.40;99.90;;;;;;5079323;28;20301;-66
2022/06/08 06:52:00;;;;;;;;;;;16.30;99.90;;;;;;5077206;28;20403;-66
2022/06/08 06:54:28;;;;;;;;;;;16.30;99.90;;;;;;5075348;28;20031;-66
2022/06/08 06:56:55;;;;;;;;;;;16.30;99.90;;;;;;5071113;28;20035;-66
2022/06/08 06:59:22;;;;;;;;;;;16.20;99.90;;;;;;5074336;28;19967;-66
2022/06/08 07:01:49;;;;;;;;;;;16.10;99.90;;;;;;5077867;28;19939;-66
2022/06/08 07:04:18;;;;;;;;;;;16.20;99.90;;;;;;5079621;28;19928;-66
2022/06/08 07:06:44;;;;;;;;;;;16.20;99.90;;;;;;5074215;28;19924;-66
2022/06/08 07:09:11;;;;;;;;;;;16.20;99.90;;;;;;5077436;28;20307;-66
2022/06/08 07:11:40;;;;;;;;;;;16.10;99.90;;;;;;5081613;28;20011;-66
2022/06/08 07:14:08;;;;;;;;;;;16.10;99.90;;;;;;5073197;28;19924;-66
2022/06/08 07:16:35;;;;;;;;;;;16.10;99.90;;;;;;5077103;28;19978;-66
2022/06/08 07:19:02;;;;;;;;;;;16.20;99.90;;;;;;5071714;28;19932;-65
2022/06/08 07:21:29;;;;;;;;;;;16.20;99.90;;;;;;5081904;28;20124;-66
2022/06/08 07:23:56;;;;;;;;;;;16.20;99.90;;;;;;5082638;28;19989;-66
2022/06/08 07:26:24;;;;;;;;;;;16.20;99.90;;;;;;5076993;28;20390;-65
2022/06/08 07:28:53;;;;;;;;;;;16.20;99.90;;;;;;5072149;28;19932;-66
2022/06/08 07:31:20;;;;;;;;;;;16.10;99.90;;;;;;5072499;28;19924;-65
2022/06/08 07:33:47;;;;;;;;;;;16.20;99.90;;;;;;5074902;28;19924;-65
2022/06/08 07:36:14;;;;;;;;;;;16.10;99.90;;;;;;5076101;28;19924;-67
2022/06/08 07:38:41;;;;;;;;;;;16.10;99.90;;;;;;5070130;28;20030;-66
2022/06/08 07:41:08;;;;;;;;;;;16.10;99.90;;;;;;5084189;28;19924;-66
2022/06/08 07:43:38;;;;;;;;;;;16.10;99.90;;;;;;5074298;28;19924;-66
2022/06/08 07:46:06;;;;;;;;;;;16.00;99.90;;;;;;5086127;28;20014;-66
2022/06/08 07:51:17;;;;;;;;;;;15.90;99.90;;;;;;5080585;28;20425;-66
2022/06/08 07:53:43;;;;;;;;;;;16.00;99.90;;;;;;5078394;28;20306;-67
2022/06/08 07:56:10;;;;;;;;;;;15.90;99.90;;;;;;5077465;28;19928;-65
2022/06/08 07:58:37;;;;;;;;;;;16.00;99.90;;;;;;5073547;28;20286;-65
2022/06/08 08:01:04;;;;;;;;;;;16.00;99.90;;;;;;5079352;28;20539;-65
2022/06/08 08:03:32;;;;;;;;;;;16.00;99.90;;;;;;5081682;28;19924;-66
2022/06/08 08:05:59;;;;;;;;;;;15.80;99.90;;;;;;5081455;28;20111;-66
2022/06/08 08:08:26;;;;;;;;;;;15.90;99.90;;;;;;5080142;28;20040;-66
2022/06/08 08:10:53;;;;;;;;;;;15.80;99.90;;;;;;5073832;28;19931;-65
2022/06/08 08:13:20;;;;;;;;;;;15.80;99.90;;;;;;5073941;28;19931;-65
2022/06/08 08:15:47;;;;;;;;;;;15.80;99.90;;;;;;5078151;28;20382;-65
2022/06/08 08:18:13;;;;;;;;;;;15.70;99.90;;;;;;5077542;28;20619;-67
2022/06/08 08:20:42;;;;;;;;;;;15.60;99.90;;;;;;5084271;28;20392;-67
2022/06/08 08:23:08;;;;;;;;;;;15.50;99.90;;;;;;5086884;28;20077;-67
2022/06/08 08:25:35;;;;;;;;;;;15.40;99.90;;;;;;5089791;28;19955;-67
2022/06/08 08:28:02;;;;;;;;;;;15.30;99.90;;;;;;5086715;28;19932;-66
2022/06/08 08:30:29;;;;;;;;;;;15.20;99.90;;;;;;5081356;28;19928;-66
2022/06/08 08:32:56;;;;;;;;;;;15.20;99.90;;;;;;5079831;28;19940;-67
2022/06/08 08:35:24;;;;;;;;;;;15.20;99.90;;;;;;5087507;28;20367;-66
2022/06/08 08:37:53;;;;;;;;;;;15.10;99.90;;;;;;5088954;28;19939;-67
2022/06/08 08:40:27;;;;;;;;;;;15.10;99.90;;;;;;5076899;28;19978;-67
2022/06/08 08:42:54;;;;;;;;;;;15.10;99.90;;;;;;5081286;28;20444;-67
2022/06/08 08:45:21;;;;;;;;;;;15.10;99.90;;;;;;5077705;28;19923;-67
2022/06/08 08:47:51;;;;;;;;;;;15.10;99.90;;;;;;5091401;28;19939;-66
2022/06/08 08:50:21;;;;;;;;;;;15.10;99.90;;;;;;5086741;28;20006;-66
2022/06/08 08:52:49;;;;;;;;;;;15.10;99.90;;;;;;5084261;28;20406;-66
2022/06/08 08:55:19;;;;;;;;;;;15.10;99.90;;;;;;5075751;28;19928;-67
2022/06/08 08:57:54;;;;;;;;;;;15.20;99.90;;;;;;5081347;28;19924;-67
2022/06/08 09:00:24;;;;;;;;;;;15.30;99.90;;;;;;5078029;28;19963;-66
2022/06/08 09:05:36;;;;;;;;;;;15.40;99.90;;;;;;5081134;28;20294;-66
2022/06/08 09:08:02;;;;;;;;;;;15.40;99.90;;;;;;5078356;28;19958;-66
2022/06/08 09:10:30;;;;;;;;;;;15.30;99.90;;;;;;5077637;28;20015;-66
2022/06/08 09:12:58;;;;;;;;;;;15.40;99.90;;;;;;5076306;28;20015;-66
2022/06/08 09:15:41;;;;;;;;;;;15.40;99.90;;;;;;5076617;28;19931;-66
2022/06/08 09:18:17;;;;;;;;;;;15.50;99.90;;;;;;5080056;28;19924;-66
2022/06/08 09:20:44;;;;;;;;;;;15.60;99.90;;;;;;5067980;28;20387;-66
2022/06/08 09:23:21;;;;;;;;;;;15.70;99.90;;;;;;5067880;28;19928;-66
2022/06/08 09:26:00;;;;;;;;;;;15.80;99.90;;;;;;5074376;28;20393;-66
2022/06/08 09:28:28;;;;;;;;;;;16.00;99.90;;;;;;5082270;28;19932;-65
2022/06/08 09:30:55;;;;;;;;;;;16.10;99.90;;;;;;5077947;28;20394;-66
2022/06/08 09:33:26;;;;;;;;;;;16.00;99.90;;;;;;5076914;28;20072;-66
2022/06/08 09:35:53;;;;;;;;;;;16.00;99.90;;;;;;5088465;28;19924;-67
2022/06/08 09:38:22;;;;;;;;;;;16.00;99.90;;;;;;5083486;28;19932;-65
2022/06/08 09:40:53;;;;;;;;;;;15.90;99.90;;;;;;5089227;28;20337;-66
2022/06/08 09:43:28;;;;;;;;;;;16.00;99.90;;;;;;5082557;28;20019;-66
2022/06/08 09:45:56;;;;;;;;;;;16.00;99.90;;;;;;5080519;28;19967;-66
2022/06/08 09:51:27;;;;;;;;;;;15.60;99.90;;;;;;5072307;28;20403;-66
2022/06/08 09:53:58;;;;;;;;;;;15.60;99.90;;;;;;5076921;28;20401;-68
2022/06/08 09:56:30;;;;;;;;;;;15.50;99.90;;;;;;5072884;28;19931;-66
2022/06/08 09:59:04;;;;;;;;;;;15.60;99.90;;;;;;5079562;28;20023;-66
2022/06/08 10:01:34;;;;;;;;;;;15.70;99.90;;;;;;5072467;28;19932;-66
2022/06/08 10:04:19;;;;;;;;;;;15.90;99.90;;;;;;5075187;28;20399;-66
2022/06/08 10:06:49;;;;;;;;;;;15.90;99.90;;;;;;5080991;28;20332;-65
2022/06/08 10:09:21;;;;;;;;;;;15.70;99.90;;;;;;5078521;28;20468;-66
2022/06/08 10:11:58;;;;;;;;;;;15.80;99.90;;;;;;5075185;28;19974;-66
2022/06/08 10:14:30;;;;;;;;;;;15.80;99.90;;;;;;5084700;28;20034;-65
2022/06/08 10:16:59;;;;;;;;;;;15.70;99.90;;;;;;5078392;28;19958;-66
2022/06/08 10:19:29;;;;;;;;;;;15.70;99.90;;;;;;5072687;28;19931;-65
2022/06/08 10:21:56;;;;;;;;;;;15.70;99.90;;;;;;5086100;28;19967;-66
2022/06/08 10:24:26;;;;;;;;;;;15.70;99.90;;;;;;5086536;28;20032;-66
2022/06/08 10:26:57;;;;;;;;;;;15.80;99.90;;;;;;5085559;28;20047;-65
2022/06/08 10:29:29;;;;;;;;;;;15.80;99.90;;;;;;5089732;28;19924;-65
2022/06/08 10:31:58;;;;;;;;;;;15.80;99.90;;;;;;5079678;28;19924;-65
2022/06/08 10:34:27;;;;;;;;;;;15.80;99.90;;;;;;5077921;28;19972;-68
2022/06/08 10:36:55;;;;;;;;;;;15.70;99.90;;;;;;5080721;28;20020;-66
2022/06/08 10:39:30;;;;;;;;;;;15.70;99.90;;;;;;5077695;28;19929;-67
2022/06/08 10:44:59;;;;;;;;;;;15.70;99.90;;;;;;5077162;28;19931;-66
2022/06/08 10:47:28;;;;;;;;;;;15.70;99.90;;;;;;5084258;28;19924;-66
2022/06/08 10:49:56;;;;;;;;;;;15.60;99.90;;;;;;5084405;28;20024;-66
2022/06/08 10:52:27;;;;;;;;;;;15.60;99.90;;;;;;5086454;28;19932;-66
2022/06/08 10:54:54;;;;;;;;;;;15.50;99.90;;;;;;5074788;28;20015;-66
2022/06/08 10:57:37;;;;;;;;;;;15.40;99.90;;;;;;5084476;28;19932;-66
2022/06/08 11:00:25;;;;;;;;;;;15.40;99.90;;;;;;5073415;28;20441;-66
2022/06/08 11:02:54;;;;;;;;;;;15.30;99.90;;;;;;5078303;28;19936;-67
2022/06/08 11:05:29;;;;;;;;;;;15.30;99.90;;;;;;5079520;28;19936;-66
2022/06/08 11:08:17;;;;;;;;;;;15.40;99.90;;;;;;5077194;28;20383;-66
2022/06/08 11:10:55;;;;;;;;;;;15.50;99.90;;;;;;5077530;28;19924;-67
2022/06/08 11:13:30;;;;;;;;;;;15.60;99.90;;;;;;5072414;28;20335;-67
2022/06/08 11:16:00;;;;;;;;;;;15.60;99.90;;;;;;5077955;28;21648;-66
2022/06/08 11:18:30;;;;;;;;;;;15.50;99.90;;;;;;5078484;28;19942;-67
2022/06/08 11:21:06;;;;;;;;;;;15.60;99.90;;;;;;5074014;28;20356;-67
2022/06/08 11:23:34;;;;;;;;;;;15.70;99.90;;;;;;5081214;28;20367;-66
2022/06/08 11:26:14;;;;;;;;;;;15.80;99.90;;;;;;5087265;28;19990;-66
2022/06/08 11:28:44;;;;;;;;;;;15.80;99.90;;;;;;5075565;28;19987;-66
2022/06/08 11:31:13;;;;;;;;;;;15.80;99.90;;;;;;5077734;28;19931;-67
2022/06/08 11:34:07;;;;;;;;;;;15.80;99.90;;;;;;5076390;28;19928;-67
2022/06/08 11:36:43;;;;;;;;;;;15.90;99.90;;;;;;5073045;28;19932;-66
2022/06/08 11:39:18;;;;;;;;;;;16.10;99.90;;;;;;5072345;28;19929;-67
2022/06/08 11:41:56;;;;;;;;;;;16.10;99.90;;;;;;5077395;28;19994;-67
2022/06/08 11:44:27;;;;;;;;;;;16.10;99.90;;;;;;5072328;28;20482;-67
2022/06/08 11:47:02;;;;;;;;;;;16.20;99.90;;;;;;5073585;28;20018;-66
2022/06/08 11:49:30;;;;;;;;;;;16.10;99.90;;;;;;5073108;28;20023;-66
2022/06/08 11:51:57;;;;;;;;;;;16.10;99.90;;;;;;5080076;28;19924;-66
2022/06/08 11:54:26;;;;;;;;;;;16.10;99.90;;;;;;5074587;28;20376;-67
2022/06/08 11:57:04;;;;;;;;;;;16.10;99.90;;;;;;5072916;28;19924;-68
2022/06/08 11:59:34;;;;;;;;;;;16.10;99.90;;;;;;5074300;28;19985;-67
2022/06/08 12:02:02;;;;;;;;;;;16.10;99.90;;;;;;5075715;28;19931;-67
2022/06/08 12:04:31;;;;;;;;;;;16.20;99.90;;;;;;5074026;28;19975;-67
2022/06/08 12:06:58;;;;;;;;;;;16.20;99.90;;;;;;5072654;28;20363;-67
2022/06/08 12:09:27;;;;;;;;;;;16.20;99.90;;;;;;5075566;28;19943;-67
2022/06/08 12:11:55;;;;;;;;;;;16.10;99.90;;;;;;5073602;28;20391;-67
2022/06/08 12:14:26;;;;;;;;;;;16.10;99.90;;;;;;5072169;28;19932;-67
2022/06/08 12:16:56;;;;;;;;;;;16.10;99.90;;;;;;5074674;28;20027;-67
2022/06/08 12:19:23;;;;;;;;;;;16.10;99.90;;;;;;5073388;28;19963;-67
2022/06/08 12:22:06;;;;;;;;;;;16.20;99.90;;;;;;5075120;28;20003;-67
2022/06/08 12:24:33;;;;;;;;;;;16.40;99.90;;;;;;5072504;28;20015;-67
2022/06/08 12:27:13;;;;;;;;;;;16.40;99.90;;;;;;5069527;28;19986;-67
2022/06/08 12:29:41;;;;;;;;;;;16.30;99.90;;;;;;5077724;28;19978;-67
2022/06/08 12:32:26;;;;;;;;;;;16.50;99.90;;;;;;5075524;28;20636;-67
2022/06/08 12:35:15;;;;;;;;;;;16.70;99.90;;;;;;5071233;28;20015;-67
2022/06/08 12:37:44;;;;;;;;;;;16.80;99.90;;;;;;5072366;28;20015;-67
2022/06/08 12:40:25;;;;;;;;;;;16.70;99.90;;;;;;5076423;28;19924;-68
2022/06/08 12:42:53;;;;;;;;;;;16.60;99.90;;;;;;5077225;28;20019;-67
2022/06/08 12:45:27;;;;;;;;;;;16.50;99.90;;;;;;5073776;28;20012;-67
2022/06/08 12:47:56;;;;;;;;;;;16.60;99.90;;;;;;5074988;28;20043;-67
2022/06/08 12:50:25;;;;;;;;;;;16.70;99.90;;;;;;5071985;28;20409;-67
2022/06/08 12:52:52;;;;;;;;;;;16.70;99.90;;;;;;5074804;28;20048;-68
2022/06/08 12:55:20;;;;;;;;;;;16.80;99.90;;;;;;5071419;28;19963;-65
2022/06/08 12:57:47;;;;;;;;;;;16.90;99.90;;;;;;5076705;28;20074;-67
2022/06/08 13:00:17;;;;;;;;;;;16.90;99.90;;;;;;5072271;28;20014;-66
2022/06/08 13:02:44;;;;;;;;;;;17.00;99.90;;;;;;5077305;28;20032;-67
2022/06/08 13:05:17;;;;;;;;;;;17.00;99.90;;;;;;5073013;28;19928;-68
2022/06/08 13:07:46;;;;;;;;;;;17.00;99.90;;;;;;5084537;28;20019;-67
2022/06/08 13:10:13;;;;;;;;;;;17.10;99.90;;;;;;5081758;28;19924;-67
2022/06/08 13:12:42;;;;;;;;;;;17.00;99.90;;;;;;5081030;28;20004;-66
2022/06/08 13:15:15;;;;;;;;;;;17.10;99.90;;;;;;5081891;28;19931;-68
2022/06/08 13:17:42;;;;;;;;;;;17.20;99.90;;;;;;5080930;28;19982;-68
2022/06/08 13:20:14;;;;;;;;;;;17.20;99.90;;;;;;5085799;28;20404;-68
2022/06/08 13:22:41;;;;;;;;;;;17.30;99.90;;;;;;5081529;28;19928;-66
2022/06/08 13:25:10;;;;;;;;;;;17.30;99.90;;;;;;5077023;28;19924;-66
2022/06/08 13:27:37;;;;;;;;;;;17.30;99.90;;;;;;5078638;28;20023;-67
2022/06/08 13:30:06;;;;;;;;;;;17.30;99.90;;;;;;5075983;28;19924;-67
2022/06/08 13:32:32;;;;;;;;;;;17.30;99.90;;;;;;5079336;28;20279;-66
2022/06/08 13:35:02;;;;;;;;;;;17.40;99.90;;;;;;5079469;28;20016;-66
2022/06/08 13:37:33;;;;;;;;;;;17.50;99.90;;;;;;5077620;28;20450;-66
2022/06/08 13:40:00;;;;;;;;;;;17.50;99.90;;;;;;5084263;28;19939;-66
2022/06/08 13:42:28;;;;;;;;;;;17.60;99.90;;;;;;5085573;28;19963;-66
2022/06/08 13:44:56;;;;;;;;;;;17.50;99.90;;;;;;5083205;28;20294;-66
2022/06/08 13:47:24;;;;;;;;;;;17.50;99.90;;;;;;5085594;28;19931;-66
2022/06/08 13:49:53;;;;;;;;;;;17.50;99.90;;;;;;5083831;28;20242;-66
2022/06/08 13:52:21;;;;;;;;;;;17.50;99.90;;;;;;5083816;28;20422;-66
2022/06/08 13:54:52;;;;;;;;;;;17.70;99.90;;;;;;5078549;28;19925;-66
2022/06/08 13:57:19;;;;;;;;;;;17.80;99.90;;;;;;5080229;28;19932;-65
2022/06/08 13:59:47;;;;;;;;;;;17.80;99.90;;;;;;5074203;28;20449;-65
2022/06/08 14:02:16;;;;;;;;;;;17.70;99.90;;;;;;5079893;28;19954;-66
2022/06/08 14:04:44;;;;;;;;;;;17.60;99.90;;;;;;5071625;28;20003;-66
2022/06/08 14:13:01;;;;;;;;;;;17.40;99.90;;;;;;5083416;28;21385;-67
2022/06/08 14:15:29;;;;;;;;;;;17.40;99.90;;;;;;5075731;28;20380;-66
2022/06/08 14:17:57;;;;;;;;;;;17.30;99.90;;;;;;5072878;28;20129;-66
2022/06/08 14:20:29;;;;;;;;;;;17.40;99.90;;;;;;5072829;28;20824;-66
2022/06/08 14:22:56;;;;;;;;;;;17.40;99.90;;;;;;5072906;28;20406;-66
2022/06/08 14:25:23;;;;;;;;;;;17.40;99.90;;;;;;5075180;28;21254;-66
2022/06/08 14:27:49;;;;;;;;;;;17.40;99.90;;;;;;5082697;28;20035;-67
2022/06/08 14:30:18;;;;;;;;;;;17.50;99.90;;;;;;5075502;28;20446;-66
2022/06/08 14:32:48;;;;;;;;;;;17.50;99.90;;;;;;5078186;28;19929;-67
2022/06/08 14:35:16;;;;;;;;;;;17.40;99.90;;;;;;5073147;28;19925;-66
2022/06/08 14:37:43;;;;;;;;;;;17.40;99.90;;;;;;5077612;28;20014;-68
2022/06/08 14:40:17;;;;;;;;;;;17.40;99.90;;;;;;5078318;28;19932;-66
2022/06/08 14:42:44;;;;;;;;;;;17.50;99.90;;;;;;5077109;28;20007;-66
2022/06/08 14:45:12;;;;;;;;;;;17.60;99.90;;;;;;5077053;28;20204;-66
2022/06/08 14:47:39;;;;;;;;;;;17.60;99.90;;;;;;5065787;28;19985;-66
2022/06/08 14:50:10;;;;;;;;;;;17.60;99.90;;;;;;5074177;28;19950;-67